Time;durP1;ratioP1;P1;durP2;ratioP2;P2;SDS_P1;SDS_P2;PMS_P1;PMS_P2;Temp;Humidity;BMP_temperature;BMP_pressure;BME280_temperature;BME280_humidity;BME280_pressure;Samples;Min_cycle;Max_cycle;Signal;HPM_P1;HPM_P2
2021/03/31 00:01:26;;;;;;;9.10;2.70;;;;;;;;;;5089481;28;20128;-88
2021/03/31 00:03:52;;;;;;;4.47;2.42;;;;;;;;;;5087814;28;20060;-89
2021/03/31 00:06:20;;;;;;;6.43;2.30;;;;;;;;;;5092069;28;20572;-88
2021/03/31 00:08:46;;;;;;;4.57;2.45;;;;;;;;;;5092343;28;20411;-88
2021/03/31 00:11:12;;;;;;;7.43;3.00;;;;;;;;;;5058494;28;20051;-87
2021/03/31 00:13:39;;;;;;;7.20;3.05;;;;;;;;;;5085895;28;20052;-88
2021/03/31 00:16:06;;;;;;;3.60;2.40;;;;;;;;;;5077021;28;20060;-87
2021/03/31 00:18:32;;;;;;;5.32;2.67;;;;;;;;;;5094397;28;20036;-88
2021/03/31 00:20:59;;;;;;;4.82;2.47;;;;;;;;;;5091184;28;20040;-86
2021/03/31 00:23:27;;;;;;;6.53;2.92;;;;;;;;;;5091963;28;20055;-88
2021/03/31 00:25:53;;;;;;;5.15;2.78;;;;;;;;;;5088795;28;20052;-87
2021/03/31 00:28:21;;;;;;;6.10;3.33;;;;;;;;;;5089345;28;20063;-88
2021/03/31 00:30:47;;;;;;;5.03;2.80;;;;;;;;;;5062133;28;20044;-88
2021/03/31 00:33:13;;;;;;;4.25;2.65;;;;;;;;;;5076390;28;20087;-87
2021/03/31 00:35:40;;;;;;;6.60;3.28;;;;;;;;;;5073153;28;20055;-87
2021/03/31 00:38:07;;;;;;;4.07;2.72;;;;;;;;;;5061111;28;20051;-88
2021/03/31 00:40:37;;;;;;;7.30;3.28;;;;;;;;;;5092307;28;20044;-87
2021/03/31 00:43:03;;;;;;;7.90;3.85;;;;;;;;;;5086706;28;20114;-88
2021/03/31 00:45:29;;;;;;;7.93;3.05;;;;;;;;;;5069749;28;20048;-87
2021/03/31 00:47:55;;;;;;;6.18;3.58;;;;;;;;;;5074517;28;20090;-87
2021/03/31 00:50:21;;;;;;;8.50;3.42;;;;;;;;;;5067504;28;20063;-87
2021/03/31 00:52:49;;;;;;;5.43;2.78;;;;;;;;;;5053757;28;20475;-87
2021/03/31 00:55:17;;;;;;;6.35;2.97;;;;;;;;;;5075920;28;20407;-87
2021/03/31 00:57:44;;;;;;;6.38;3.42;;;;;;;;;;5073808;28;20044;-87
2021/03/31 01:00:11;;;;;;;6.95;2.53;;;;;;;;;;5087573;28;20044;-87
2021/03/31 01:02:37;;;;;;;7.13;2.92;;;;;;;;;;5065710;28;20450;-88
2021/03/31 01:05:06;;;;;;;6.85;2.58;;;;;;;;;;5095124;28;20469;-88
2021/03/31 01:07:32;;;;;;;5.63;3.00;;;;;;;;;;5072636;28;20083;-88
2021/03/31 01:10:00;;;;;;;6.20;2.97;;;;;;;;;;5094471;28;20036;-87
2021/03/31 01:12:33;;;;;;;5.40;3.17;;;;;;;;;;5058231;28;20040;-86
2021/03/31 01:15:07;;;;;;;5.97;3.33;;;;;;;;;;5067891;28;20387;-87
2021/03/31 01:17:38;;;;;;;6.68;3.00;;;;;;;;;;5092710;28;20043;-87
2021/03/31 01:20:37;;;;;;;7.18;2.92;;;;;;;;;;5089804;28;20066;-88
2021/03/31 01:23:27;;;;;;;5.65;2.58;;;;;;;;;;5070228;28;20048;-87
2021/03/31 01:25:57;;;;;;;7.88;3.50;;;;;;;;;;5088818;28;20051;-87
2021/03/31 01:28:46;;;;;;;5.72;3.20;;;;;;;;;;5084082;28;20526;-87
2021/03/31 01:31:25;;;;;;;8.07;2.83;;;;;;;;;;5084585;28;20064;-89
2021/03/31 01:34:06;;;;;;;10.50;3.58;;;;;;;;;;5085191;28;20098;-88
2021/03/31 01:36:34;;;;;;;6.40;2.83;;;;;;;;;;5087727;28;20045;-87
2021/03/31 01:39:03;;;;;;;9.55;3.47;;;;;;;;;;5074727;28;20071;-86
2021/03/31 01:41:31;;;;;;;5.20;3.30;;;;;;;;;;5074331;28;20040;-87
2021/03/31 01:43:59;;;;;;;6.68;3.25;;;;;;;;;;5091351;28;20044;-87
2021/03/31 01:46:28;;;;;;;6.25;3.45;;;;;;;;;;5088670;28;20415;-87
2021/03/31 01:48:54;;;;;;;5.45;3.03;;;;;;;;;;5088559;28;20392;-87
2021/03/31 01:51:21;;;;;;;6.78;2.97;;;;;;;;;;5069762;28;20407;-89
2021/03/31 01:53:48;;;;;;;4.72;2.58;;;;;;;;;;5084648;28;20497;-87
2021/03/31 01:56:15;;;;;;;5.05;2.75;;;;;;;;;;5065787;28;20041;-87
2021/03/31 01:58:43;;;;;;;5.95;2.72;;;;;;;;;;5082436;28;20048;-88
2021/03/31 02:01:09;;;;;;;5.57;2.97;;;;;;;;;;5086066;28;20492;-87
2021/03/31 02:03:37;;;;;;;7.10;2.90;;;;;;;;;;5080921;28;20048;-88
2021/03/31 02:06:04;;;;;;;7.53;3.22;;;;;;;;;;5086484;28;20051;-87
2021/03/31 02:08:30;;;;;;;7.13;3.58;;;;;;;;;;5091731;28;20043;-87
2021/03/31 02:10:57;;;;;;;4.78;3.20;;;;;;;;;;5074462;28;20048;-87
2021/03/31 02:13:23;;;;;;;5.40;3.20;;;;;;;;;;5088703;28;20458;-87
2021/03/31 02:15:56;;;;;;;4.93;2.95;;;;;;;;;;5071258;28;20044;-87
2021/03/31 02:18:22;;;;;;;7.13;3.53;;;;;;;;;;5086776;28;20106;-87
2021/03/31 02:20:52;;;;;;;11.07;4.00;;;;;;;;;;5060115;28;20460;-87
2021/03/31 02:23:18;;;;;;;6.70;3.50;;;;;;;;;;5086966;28;20049;-87
2021/03/31 02:25:46;;;;;;;10.60;4.22;;;;;;;;;;5085752;28;20044;-87
2021/03/31 02:28:13;;;;;;;6.97;3.53;;;;;;;;;;5085841;28;20048;-87
2021/03/31 02:30:40;;;;;;;6.72;3.45;;;;;;;;;;5083085;28;20051;-87
2021/03/31 02:33:08;;;;;;;9.32;3.35;;;;;;;;;;5087961;28;20048;-87
2021/03/31 02:35:36;;;;;;;8.98;3.83;;;;;;;;;;5071066;28;20040;-87
2021/03/31 02:38:06;;;;;;;10.55;3.92;;;;;;;;;;5070809;28;20481;-87
2021/03/31 02:40:33;;;;;;;9.43;3.55;;;;;;;;;;5073518;28;20047;-87
2021/03/31 02:43:00;;;;;;;6.70;3.70;;;;;;;;;;5064454;28;20055;-87
2021/03/31 02:45:29;;;;;;;11.70;4.07;;;;;;;;;;5091123;28;20074;-88
2021/03/31 02:47:55;;;;;;;10.55;3.65;;;;;;;;;;5088368;28;20086;-87
2021/03/31 02:50:23;;;;;;;8.82;3.78;;;;;;;;;;5089268;28;20415;-88
2021/03/31 02:52:50;;;;;;;7.95;4.25;;;;;;;;;;5086344;28;20044;-87
2021/03/31 02:55:17;;;;;;;10.55;3.58;;;;;;;;;;5067642;28;20055;-87
2021/03/31 02:57:44;;;;;;;5.88;3.60;;;;;;;;;;5088615;28;20040;-86
2021/03/31 03:00:11;;;;;;;7.10;4.07;;;;;;;;;;5087528;28;20078;-87
2021/03/31 03:02:41;;;;;;;6.13;3.60;;;;;;;;;;5089738;28;20597;-87
2021/03/31 03:05:08;;;;;;;6.25;3.53;;;;;;;;;;5085289;28;20047;-86
2021/03/31 03:07:34;;;;;;;6.18;3.58;;;;;;;;;;5085162;28;20123;-87
2021/03/31 03:10:01;;;;;;;12.32;3.92;;;;;;;;;;5084104;28;20044;-88
2021/03/31 03:12:28;;;;;;;9.00;3.97;;;;;;;;;;5090454;28;20056;-88
2021/03/31 03:14:55;;;;;;;8.82;4.53;;;;;;;;;;5086197;28;20045;-88
2021/03/31 03:17:21;;;;;;;7.47;4.30;;;;;;;;;;5085416;28;20052;-87
2021/03/31 03:19:49;;;;;;;7.85;4.28;;;;;;;;;;5090344;28;20563;-88
2021/03/31 03:22:15;;;;;;;8.70;3.72;;;;;;;;;;5072708;28;20129;-87
2021/03/31 03:24:43;;;;;;;9.45;4.30;;;;;;;;;;5090400;28;20102;-88
2021/03/31 03:27:12;;;;;;;12.18;5.05;;;;;;;;;;5088133;28;20044;-87
2021/03/31 03:29:41;;;;;;;7.20;3.35;;;;;;;;;;5087394;28;20066;-86
2021/03/31 03:32:08;;;;;;;8.68;4.70;;;;;;;;;;5087796;28;20054;-87
2021/03/31 03:34:34;;;;;;;7.20;3.83;;;;;;;;;;5089175;28;20067;-87
2021/03/31 03:37:01;;;;;;;12.50;4.97;;;;;;;;;;5070859;28;20052;-88
2021/03/31 03:39:27;;;;;;;7.78;4.38;;;;;;;;;;5052279;28;20051;-87
2021/03/31 03:41:53;;;;;;;8.43;4.95;;;;;;;;;;5067668;28;20088;-87
2021/03/31 03:44:20;;;;;;;7.60;4.22;;;;;;;;;;5067884;28;20044;-86
2021/03/31 03:46:48;;;;;;;7.75;4.18;;;;;;;;;;5052792;28;20123;-87
2021/03/31 03:49:14;;;;;;;10.13;6.32;;;;;;;;;;5090079;28;20048;-87
2021/03/31 03:51:41;;;;;;;10.90;4.07;;;;;;;;;;5088352;28;20047;-88
2021/03/31 03:54:10;;;;;;;8.43;4.97;;;;;;;;;;5094421;28;20050;-88
2021/03/31 03:56:36;;;;;;;8.15;4.53;;;;;;;;;;5089745;28;20048;-88
2021/03/31 03:59:19;;;;;;;7.32;4.20;;;;;;;;;;5092718;28;20040;-88
2021/03/31 04:01:45;;;;;;;6.63;3.95;;;;;;;;;;5093121;28;20056;-87
2021/03/31 04:04:11;;;;;;;7.93;4.18;;;;;;;;;;5091577;28;20048;-88
2021/03/31 04:06:37;;;;;;;7.03;4.20;;;;;;;;;;5076976;28;20071;-87
2021/03/31 04:09:04;;;;;;;6.18;3.67;;;;;;;;;;5093289;28;20044;-88
2021/03/31 04:11:32;;;;;;;6.32;3.33;;;;;;;;;;5061771;28;20052;-89
2021/03/31 04:13:59;;;;;;;7.28;4.32;;;;;;;;;;5090566;28;20040;-87
2021/03/31 04:16:25;;;;;;;9.63;4.30;;;;;;;;;;5070339;28;20059;-86
2021/03/31 04:18:53;;;;;;;6.70;3.45;;;;;;;;;;5076949;28;20068;-87
2021/03/31 04:21:19;;;;;;;5.18;3.22;;;;;;;;;;5094534;28;20040;-88
2021/03/31 04:23:47;;;;;;;6.03;3.78;;;;;;;;;;5071854;28;20045;-88
2021/03/31 04:26:14;;;;;;;6.05;3.40;;;;;;;;;;5090191;28;20039;-87
2021/03/31 04:28:47;;;;;;;7.10;3.45;;;;;;;;;;5075130;28;20056;-87
2021/03/31 04:31:13;;;;;;;7.30;3.80;;;;;;;;;;5087926;28;20045;-86
2021/03/31 04:33:39;;;;;;;10.18;4.00;;;;;;;;;;5054691;28;20052;-86
2021/03/31 04:36:06;;;;;;;9.88;4.47;;;;;;;;;;5096433;28;20420;-88
2021/03/31 04:38:33;;;;;;;10.05;4.90;;;;;;;;;;5071457;28;20049;-87
2021/03/31 04:41:00;;;;;;;9.35;4.35;;;;;;;;;;5071325;28;20060;-87
2021/03/31 04:43:27;;;;;;;7.85;4.00;;;;;;;;;;5075774;28;20504;-87
2021/03/31 04:45:57;;;;;;;10.85;3.88;;;;;;;;;;5089125;28;20048;-88
2021/03/31 04:48:23;;;;;;;8.68;4.22;;;;;;;;;;5088867;28;20052;-87
2021/03/31 04:50:49;;;;;;;11.73;4.18;;;;;;;;;;5091265;28;20036;-88
2021/03/31 04:53:15;;;;;;;7.70;4.38;;;;;;;;;;5073694;28;20059;-88
2021/03/31 04:55:41;;;;;;;10.75;3.90;;;;;;;;;;5072209;28;20060;-87
2021/03/31 04:58:07;;;;;;;10.13;4.55;;;;;;;;;;5092857;28;20047;-86
2021/03/31 05:00:34;;;;;;;7.82;3.85;;;;;;;;;;5054573;28;20048;-87
2021/03/31 05:03:01;;;;;;;7.68;4.28;;;;;;;;;;5056301;28;20500;-86
2021/03/31 05:05:27;;;;;;;7.43;3.85;;;;;;;;;;5073850;28;20056;-88
2021/03/31 05:07:53;;;;;;;6.75;3.70;;;;;;;;;;5094087;28;20036;-86
2021/03/31 05:10:19;;;;;;;8.05;4.30;;;;;;;;;;5072535;28;20051;-88
2021/03/31 05:12:45;;;;;;;8.02;4.28;;;;;;;;;;5071769;28;20056;-88
2021/03/31 05:15:12;;;;;;;10.98;4.07;;;;;;;;;;5072413;28;20101;-88
2021/03/31 05:17:39;;;;;;;12.90;4.35;;;;;;;;;;5090879;28;20047;-88
2021/03/31 05:20:08;;;;;;;12.73;5.10;;;;;;;;;;5088386;28;20040;-87
2021/03/31 05:22:34;;;;;;;10.85;4.95;;;;;;;;;;5092042;28;20051;-87
2021/03/31 05:25:00;;;;;;;8.00;4.38;;;;;;;;;;5068520;28;20358;-88
2021/03/31 05:27:26;;;;;;;11.88;4.88;;;;;;;;;;5072053;28;20048;-89
2021/03/31 05:29:52;;;;;;;9.57;4.43;;;;;;;;;;5088219;28;20055;-89
2021/03/31 05:32:19;;;;;;;9.05;6.05;;;;;;;;;;5088504;28;20058;-87
2021/03/31 05:34:45;;;;;;;9.45;5.45;;;;;;;;;;5075290;28;20055;-87
2021/03/31 05:37:12;;;;;;;8.07;5.13;;;;;;;;;;5086446;28;20164;-87
2021/03/31 05:39:40;;;;;;;11.40;5.97;;;;;;;;;;5073139;28;20104;-87
2021/03/31 05:42:08;;;;;;;11.25;5.25;;;;;;;;;;5068473;28;20071;-87
2021/03/31 05:44:35;;;;;;;9.43;5.30;;;;;;;;;;5090138;28;20040;-87
2021/03/31 05:47:03;;;;;;;13.52;5.32;;;;;;;;;;5070120;28;20057;-89
2021/03/31 05:49:30;;;;;;;10.43;4.95;;;;;;;;;;5088108;28;20118;-87
2021/03/31 05:51:56;;;;;;;12.60;4.85;;;;;;;;;;5089086;28;20048;-88
2021/03/31 05:54:24;;;;;;;11.60;4.63;;;;;;;;;;5070021;28;20036;-87
2021/03/31 05:56:51;;;;;;;10.07;4.10;;;;;;;;;;5067277;28;20221;-87
2021/03/31 05:59:17;;;;;;;13.70;4.85;;;;;;;;;;5086642;28;20112;-87
2021/03/31 06:01:44;;;;;;;9.10;4.88;;;;;;;;;;5068998;28;20056;-87
2021/03/31 06:04:10;;;;;;;10.57;4.85;;;;;;;;;;5091460;28;20076;-88
2021/03/31 06:06:36;;;;;;;7.90;3.80;;;;;;;;;;5087686;28;20048;-87
2021/03/31 06:09:06;;;;;;;8.90;5.20;;;;;;;;;;5067214;28;20048;-88
2021/03/31 06:11:47;;;;;;;14.00;5.35;;;;;;;;;;5086725;28;20048;-87
2021/03/31 06:14:16;;;;;;;10.65;4.47;;;;;;;;;;5076102;28;20067;-87
2021/03/31 06:16:47;;;;;;;7.82;4.45;;;;;;;;;;5073415;28;20044;-88
2021/03/31 06:19:18;;;;;;;11.20;6.32;;;;;;;;;;5058904;28;20040;-87
2021/03/31 06:21:55;;;;;;;10.55;6.00;;;;;;;;;;5075159;28;20074;-87
2021/03/31 06:24:25;;;;;;;13.70;6.13;;;;;;;;;;5069101;28;20052;-88
2021/03/31 06:26:52;;;;;;;12.40;6.93;;;;;;;;;;5055737;28;20109;-86
2021/03/31 06:29:19;;;;;;;16.63;10.15;;;;;;;;;;5087909;28;20546;-89
2021/03/31 06:31:47;;;;;;;14.80;8.68;;;;;;;;;;5039335;28;20098;-88
2021/03/31 06:34:16;;;;;;;14.15;8.20;;;;;;;;;;5075313;28;20043;-89
2021/03/31 06:36:44;;;;;;;14.90;6.75;;;;;;;;;;5070789;28;20131;-87
2021/03/31 06:39:25;;;;;;;11.60;7.18;;;;;;;;;;5089771;28;20045;-88
2021/03/31 06:41:57;;;;;;;15.48;6.25;;;;;;;;;;5088959;28;20064;-86
2021/03/31 06:44:34;;;;;;;17.90;8.52;;;;;;;;;;5092126;28;20052;-86
2021/03/31 06:47:06;;;;;;;28.25;9.35;;;;;;;;;;5092530;28;20093;-86
2021/03/31 06:49:32;;;;;;;15.88;8.80;;;;;;;;;;5088040;28;20049;-87
2021/03/31 06:52:05;;;;;;;19.30;8.63;;;;;;;;;;5076962;28;20040;-87
2021/03/31 06:54:40;;;;;;;15.88;7.00;;;;;;;;;;5096799;28;20062;-88
2021/03/31 06:57:10;;;;;;;15.18;7.72;;;;;;;;;;5088595;28;20118;-87
2021/03/31 06:59:36;;;;;;;15.45;7.80;;;;;;;;;;5092099;28;20047;-87
2021/03/31 07:02:04;;;;;;;16.77;9.10;;;;;;;;;;5075829;28;20049;-86
2021/03/31 07:04:32;;;;;;;13.45;7.13;;;;;;;;;;5089294;28;20040;-86
2021/03/31 07:07:00;;;;;;;13.68;7.68;;;;;;;;;;5070325;28;20067;-87
2021/03/31 07:09:26;;;;;;;29.23;9.55;;;;;;;;;;5091942;28;20087;-86
2021/03/31 07:11:52;;;;;;;13.82;8.48;;;;;;;;;;5090854;28;20047;-87
2021/03/31 07:14:20;;;;;;;14.63;7.50;;;;;;;;;;5076415;28;20057;-87
2021/03/31 07:16:47;;;;;;;15.85;8.90;;;;;;;;;;5062537;28;20054;-88
2021/03/31 07:19:14;;;;;;;20.55;8.32;;;;;;;;;;5103361;28;20099;-86
2021/03/31 07:21:40;;;;;;;17.77;10.70;;;;;;;;;;5100148;28;20055;-87
2021/03/31 07:24:08;;;;;;;16.35;8.43;;;;;;;;;;5091485;28;20036;-86
2021/03/31 07:26:34;;;;;;;12.52;8.45;;;;;;;;;;5105992;28;20044;-87
2021/03/31 07:29:00;;;;;;;14.00;8.40;;;;;;;;;;5090265;28;20117;-86
2021/03/31 07:31:29;;;;;;;16.13;8.43;;;;;;;;;;5067778;28;20036;-85
2021/03/31 07:34:09;;;;;;;17.40;8.05;;;;;;;;;;5100969;28;20062;-86
2021/03/31 07:36:37;;;;;;;18.67;8.57;;;;;;;;;;5095291;28;20036;-86
2021/03/31 07:39:05;;;;;;;15.77;8.38;;;;;;;;;;5091828;28;20056;-86
2021/03/31 07:41:36;;;;;;;14.50;8.40;;;;;;;;;;5097391;28;20112;-86
2021/03/31 07:44:04;;;;;;;15.13;8.48;;;;;;;;;;5090536;28;20077;-87
2021/03/31 07:46:37;;;;;;;18.15;9.00;;;;;;;;;;5098577;28;20052;-86
2021/03/31 07:49:04;;;;;;;13.75;8.13;;;;;;;;;;5098069;28;20043;-85
2021/03/31 07:51:31;;;;;;;15.32;8.00;;;;;;;;;;5095709;28;20051;-85
2021/03/31 07:54:15;;;;;;;14.45;8.77;;;;;;;;;;5098281;28;20044;-85
2021/03/31 07:56:43;;;;;;;16.73;9.30;;;;;;;;;;5093282;28;20054;-85
2021/03/31 07:59:15;;;;;;;19.55;8.07;;;;;;;;;;5095279;28;20050;-86
2021/03/31 08:01:58;;;;;;;14.32;7.68;;;;;;;;;;5090424;28;20063;-86
2021/03/31 08:04:31;;;;;;;14.77;8.38;;;;;;;;;;5095083;28;20052;-87
2021/03/31 08:07:19;;;;;;;18.33;8.40;;;;;;;;;;5092709;28;20044;-89
2021/03/31 08:10:00;;;;;;;;;;;;;;;;;;;;;
2021/03/31 08:12:34;;;;;;;14.57;8.38;;;;;;;;;;5083543;28;20143;-85
2021/03/31 08:15:13;;;;;;;;;;;;;;;;;;;;;
2021/03/31 08:17:41;;;;;;;12.80;7.53;;;;;;;;;;5099049;28;20568;-85
2021/03/31 08:20:08;;;;;;;18.05;7.85;;;;;;;;;;5093504;28;20132;-85
2021/03/31 08:22:37;;;;;;;12.43;7.68;;;;;;;;;;5092583;28;20055;-85
2021/03/31 08:25:25;;;;;;;13.55;8.40;;;;;;;;;;5098524;28;20071;-85
2021/03/31 08:28:07;;;;;;;17.95;8.05;;;;;;;;;;5090553;28;20044;-85
2021/03/31 08:30:35;;;;;;;11.82;7.05;;;;;;;;;;5091705;28;20051;-85
2021/03/31 08:33:03;;;;;;;14.77;7.95;;;;;;;;;;5093154;28;20066;-85
2021/03/31 08:35:29;;;;;;;14.07;8.68;;;;;;;;;;5077115;28;20102;-86
2021/03/31 08:38:07;;;;;;;15.38;8.43;;;;;;;;;;5074419;28;20070;-85
2021/03/31 08:40:57;;;;;;;;;;;;;;;;;;;;;
2021/03/31 08:43:29;;;;;;;12.07;8.43;;;;;;;;;;5080394;28;20548;-85
2021/03/31 08:46:01;;;;;;;16.30;8.82;;;;;;;;;;5069537;28;20489;-85
2021/03/31 08:48:40;;;;;;;14.30;8.20;;;;;;;;;;5071145;28;20048;-86
2021/03/31 08:51:07;;;;;;;12.55;8.52;;;;;;;;;;5089105;28;20055;-85
2021/03/31 08:53:34;;;;;;;13.15;8.05;;;;;;;;;;5090347;28;20072;-85
2021/03/31 08:56:01;;;;;;;17.75;9.07;;;;;;;;;;5057942;28;20048;-85
2021/03/31 08:58:27;;;;;;;16.75;9.55;;;;;;;;;;5089739;28;20055;-87
2021/03/31 09:00:53;;;;;;;11.98;8.48;;;;;;;;;;5082676;28;20049;-86
2021/03/31 09:03:20;;;;;;;15.35;8.52;;;;;;;;;;5092610;28;20507;-86
2021/03/31 09:05:59;;;;;;;13.20;8.88;;;;;;;;;;5083381;28;20040;-85
2021/03/31 09:08:26;;;;;;;13.68;7.80;;;;;;;;;;5093160;28;20060;-85
2021/03/31 09:10:56;;;;;;;14.18;7.97;;;;;;;;;;5090204;28;20153;-84
2021/03/31 09:13:27;;;;;;;17.05;8.10;;;;;;;;;;5088846;28;20070;-85
2021/03/31 09:15:54;;;;;;;11.73;8.00;;;;;;;;;;5091449;28;20062;-85
2021/03/31 09:18:21;;;;;;;13.07;7.78;;;;;;;;;;5071889;28;20052;-85
2021/03/31 09:20:57;;;;;;;11.48;7.78;;;;;;;;;;5086324;28;20048;-88
2021/03/31 09:23:37;;;;;;;;;;;;;;;;;;;;;
2021/03/31 09:26:06;;;;;;;10.77;7.43;;;;;;;;;;5070712;28;20095;-86
2021/03/31 09:28:38;;;;;;;10.93;7.25;;;;;;;;;;5093101;28;20041;-86
2021/03/31 09:31:09;;;;;;;9.95;7.00;;;;;;;;;;5057929;28;20415;-84
2021/03/31 09:33:36;;;;;;;10.05;6.57;;;;;;;;;;5088225;28;20043;-85
2021/03/31 09:36:15;;;;;;;10.70;6.85;;;;;;;;;;5090170;28;20051;-86
2021/03/31 09:38:42;;;;;;;11.55;6.35;;;;;;;;;;5090158;28;20052;-86
2021/03/31 09:41:08;;;;;;;9.90;5.85;;;;;;;;;;5090502;28;20040;-85
2021/03/31 09:43:35;;;;;;;10.90;5.82;;;;;;;;;;5091756;28;20082;-85
2021/03/31 09:46:03;;;;;;;9.55;6.15;;;;;;;;;;5088461;28;20967;-85
2021/03/31 09:48:32;;;;;;;12.07;5.90;;;;;;;;;;5090832;28;20066;-86
2021/03/31 09:51:08;;;;;;;;;;;;;;;;;;;;;
2021/03/31 09:53:52;;;;;;;;;;;;;;;;;;;;;
2021/03/31 09:56:19;;;;;;;9.38;5.63;;;;;;;;;;5085932;28;20116;-86
2021/03/31 09:58:47;;;;;;;11.77;5.68;;;;;;;;;;5087186;28;20075;-88
2021/03/31 10:01:18;;;;;;;8.95;5.65;;;;;;;;;;5086739;28;20044;-86
2021/03/31 10:03:50;;;;;;;12.48;6.47;;;;;;;;;;5091188;28;20044;-86
2021/03/31 10:06:23;;;;;;;18.90;5.97;;;;;;;;;;5084764;28;20040;-86
2021/03/31 10:08:50;;;;;;;15.40;5.82;;;;;;;;;;5088321;28;20064;-87
2021/03/31 10:11:38;;;;;;;13.20;6.50;;;;;;;;;;5072221;28;20044;-87
2021/03/31 10:14:05;;;;;;;9.70;5.50;;;;;;;;;;5091537;28;20048;-87
2021/03/31 10:16:57;;;;;;;;;;;;;;;;;;;;;
2021/03/31 10:19:38;;;;;;;10.63;5.57;;;;;;;;;;5090114;28;20055;-86
2021/03/31 10:22:26;;;;;;;9.98;5.88;;;;;;;;;;5089854;28;20072;-88
2021/03/31 10:24:57;;;;;;;9.75;5.25;;;;;;;;;;5080092;28;20097;-85
2021/03/31 10:27:45;;;;;;;9.98;5.97;;;;;;;;;;5090952;28;20130;-86
2021/03/31 10:30:28;;;;;;;10.23;5.50;;;;;;;;;;5084795;28;20044;-85
2021/03/31 10:35:59;;;;;;;12.13;5.65;;;;;;;;;;5079683;28;20044;-86
2021/03/31 10:38:31;;;;;;;10.35;5.78;;;;;;;;;;5088065;28;20047;-88
2021/03/31 10:41:49;;;;;;;10.15;4.82;;;;;;;;;;5097004;28;20481;-88
2021/03/31 10:47:18;;;;;;;13.60;5.93;;;;;;;;;;5091267;28;20050;-85
2021/03/31 10:49:48;;;;;;;10.02;6.20;;;;;;;;;;5092160;28;20068;-85
2021/03/31 10:52:17;;;;;;;10.00;5.30;;;;;;;;;;5095661;28;20055;-86
2021/03/31 10:54:43;;;;;;;9.07;5.68;;;;;;;;;;5094694;28;20047;-87
2021/03/31 10:57:12;;;;;;;8.20;5.25;;;;;;;;;;5084250;28;20072;-87
2021/03/31 10:59:40;;;;;;;11.48;5.30;;;;;;;;;;5086174;28;20045;-86
2021/03/31 11:02:07;;;;;;;9.13;5.75;;;;;;;;;;5087308;28;20071;-86
2021/03/31 11:04:43;;;;;;;;;;;;;;;;;;;;;
2021/03/31 11:07:13;;;;;;;10.38;6.30;;;;;;;;;;5078297;28;20552;-88
2021/03/31 11:09:40;;;;;;;13.75;6.25;;;;;;;;;;5087047;28;20048;-85
2021/03/31 11:12:33;;;;;;;;;;;;;;;;;;;;;
2021/03/31 11:15:04;;;;;;;10.60;6.50;;;;;;;;;;5087151;28;20060;-85
2021/03/31 11:17:36;;;;;;;14.50;6.85;;;;;;;;;;5096150;28;20121;-86
2021/03/31 11:20:14;;;;;;;10.70;6.40;;;;;;;;;;5099345;28;20066;-85
2021/03/31 11:25:39;;;;;;;12.93;6.90;;;;;;;;;;5093811;28;20137;-90
2021/03/31 11:28:11;;;;;;;9.65;6.05;;;;;;;;;;5090944;28;20408;-86
2021/03/31 11:31:10;;;;;;;11.48;6.88;;;;;;;;;;5086348;28;20067;-85
2021/03/31 11:33:40;;;;;;;9.68;6.15;;;;;;;;;;5075880;28;20057;-85
2021/03/31 11:36:08;;;;;;;9.55;6.78;;;;;;;;;;5087639;28;20040;-87
2021/03/31 11:38:35;;;;;;;13.75;6.82;;;;;;;;;;5089740;28;20044;-86
2021/03/31 11:41:21;;;;;;;;;;;;;;;;;;;;;
2021/03/31 11:43:49;;;;;;;10.43;7.00;;;;;;;;;;5083322;28;20123;-85
2021/03/31 11:46:24;;;;;;;10.07;6.60;;;;;;;;;;5080429;28;20054;-87
2021/03/31 11:49:06;;;;;;;;;;;;;;;;;;;;;
2021/03/31 11:51:40;;;;;;;10.65;7.05;;;;;;;;;;5095532;28;20123;-88
2021/03/31 11:54:24;;;;;;;;;;;;;;;;;;;;;
2021/03/31 11:56:54;;;;;;;13.43;6.63;;;;;;;;;;5087313;28;20127;-86
2021/03/31 11:59:21;;;;;;;11.40;6.20;;;;;;;;;;5090609;28;20381;-86
2021/03/31 12:01:51;;;;;;;11.45;7.13;;;;;;;;;;5087062;28;20059;-86
2021/03/31 12:04:22;;;;;;;10.93;7.03;;;;;;;;;;5086646;28;20064;-86
2021/03/31 12:06:49;;;;;;;10.98;7.60;;;;;;;;;;5083087;28;20408;-85
2021/03/31 12:09:16;;;;;;;10.82;6.50;;;;;;;;;;5087138;28;20051;-86
2021/03/31 12:11:42;;;;;;;10.55;6.93;;;;;;;;;;5091886;28;20111;-86
2021/03/31 12:14:08;;;;;;;9.57;6.55;;;;;;;;;;5090653;28;20044;-86
2021/03/31 12:16:34;;;;;;;8.48;6.15;;;;;;;;;;5088727;28;20054;-85
2021/03/31 12:19:00;;;;;;;11.77;7.07;;;;;;;;;;5092391;28;20435;-86
2021/03/31 12:21:27;;;;;;;10.10;6.97;;;;;;;;;;5091322;28;20052;-86
2021/03/31 12:23:53;;;;;;;8.45;6.05;;;;;;;;;;5088564;28;20051;-86
2021/03/31 12:26:19;;;;;;;26.13;6.03;;;;;;;;;;5084732;28;20052;-87
2021/03/31 12:28:50;;;;;;;12.27;5.82;;;;;;;;;;5087522;28;20059;-86
2021/03/31 12:31:16;;;;;;;11.13;6.18;;;;;;;;;;5084820;28;20058;-86
2021/03/31 12:33:42;;;;;;;10.00;6.15;;;;;;;;;;5086096;28;20052;-87
2021/03/31 12:36:08;;;;;;;14.10;6.75;;;;;;;;;;5089400;28;20131;-86
2021/03/31 12:38:35;;;;;;;9.98;6.22;;;;;;;;;;5093649;28;20100;-86
2021/03/31 12:41:02;;;;;;;9.70;6.53;;;;;;;;;;5090553;28;20056;-87
2021/03/31 12:43:28;;;;;;;9.73;6.60;;;;;;;;;;5088132;28;20056;-87
2021/03/31 12:45:54;;;;;;;10.52;6.75;;;;;;;;;;5088050;28;20050;-87
2021/03/31 12:48:21;;;;;;;8.23;6.03;;;;;;;;;;5091042;28;20044;-86
2021/03/31 12:50:50;;;;;;;11.68;5.93;;;;;;;;;;5090079;28;20618;-86
2021/03/31 12:53:22;;;;;;;11.70;5.93;;;;;;;;;;5084391;28;20052;-87
2021/03/31 12:55:53;;;;;;;14.43;6.38;;;;;;;;;;5087939;28;20036;-87
2021/03/31 12:58:22;;;;;;;12.48;6.95;;;;;;;;;;5083961;28;20131;-86
2021/03/31 13:00:51;;;;;;;11.98;6.72;;;;;;;;;;5086599;28;20052;-85
2021/03/31 13:03:17;;;;;;;13.73;5.95;;;;;;;;;;5087751;28;20035;-87
2021/03/31 13:05:44;;;;;;;7.25;5.30;;;;;;;;;;5088004;28;20044;-87
2021/03/31 13:08:12;;;;;;;10.43;5.95;;;;;;;;;;5086176;28;20045;-87
2021/03/31 13:10:38;;;;;;;8.18;5.93;;;;;;;;;;5096245;28;20545;-86
2021/03/31 13:13:09;;;;;;;8.35;5.13;;;;;;;;;;5090238;28;20044;-86
2021/03/31 13:15:35;;;;;;;13.77;6.80;;;;;;;;;;5091891;28;20618;-86
2021/03/31 13:18:13;;;;;;;14.88;6.18;;;;;;;;;;5088997;28;20055;-86
2021/03/31 13:23:48;;;;;;;10.25;5.88;;;;;;;;;;5087947;28;20056;-86
2021/03/31 13:26:28;;;;;;;10.70;5.10;;;;;;;;;;5084293;28;20704;-85
2021/03/31 13:29:30;;;;;;;9.48;5.60;;;;;;;;;;5085067;28;20093;-86
2021/03/31 13:31:58;;;;;;;12.20;5.32;;;;;;;;;;5089759;28;20048;-87
2021/03/31 13:34:27;;;;;;;7.47;5.22;;;;;;;;;;5085639;28;20052;-87
2021/03/31 13:36:57;;;;;;;9.90;6.07;;;;;;;;;;5086507;28;20041;-86
2021/03/31 13:39:25;;;;;;;8.93;6.25;;;;;;;;;;5087004;28;20045;-87
2021/03/31 13:41:51;;;;;;;10.85;5.85;;;;;;;;;;5090306;28;20051;-87
2021/03/31 13:44:33;;;;;;;8.90;5.95;;;;;;;;;;5089990;28;20044;-88
2021/03/31 13:47:07;;;;;;;6.93;5.05;;;;;;;;;;5075682;28;20125;-86
2021/03/31 13:49:36;;;;;;;9.50;5.57;;;;;;;;;;5085341;28;20068;-85
2021/03/31 13:52:05;;;;;;;8.90;5.88;;;;;;;;;;5088778;28;20050;-84
2021/03/31 13:54:36;;;;;;;9.20;5.75;;;;;;;;;;5084210;28;20052;-85
2021/03/31 13:57:03;;;;;;;8.18;5.18;;;;;;;;;;5092290;28;20048;-86
2021/03/31 13:59:30;;;;;;;9.25;5.70;;;;;;;;;;5093623;28;20046;-85
2021/03/31 14:01:57;;;;;;;8.90;5.45;;;;;;;;;;5091375;28;20067;-85
2021/03/31 14:04:23;;;;;;;9.93;5.60;;;;;;;;;;5087198;28;20106;-86
2021/03/31 14:06:51;;;;;;;13.10;5.60;;;;;;;;;;5085521;28;20105;-86
2021/03/31 14:09:18;;;;;;;10.30;5.18;;;;;;;;;;5085200;28;20044;-85
2021/03/31 14:11:46;;;;;;;7.10;4.75;;;;;;;;;;5079409;28;20076;-86
2021/03/31 14:14:15;;;;;;;7.03;4.97;;;;;;;;;;5090913;28;20046;-85
2021/03/31 14:16:44;;;;;;;8.13;4.82;;;;;;;;;;5086517;28;20047;-86
2021/03/31 14:19:11;;;;;;;8.20;4.70;;;;;;;;;;5087379;28;20059;-86
2021/03/31 14:21:37;;;;;;;8.77;5.28;;;;;;;;;;5091619;28;20154;-86
2021/03/31 14:24:04;;;;;;;8.95;5.53;;;;;;;;;;5086426;28;20044;-86
2021/03/31 14:26:34;;;;;;;9.65;6.03;;;;;;;;;;5087326;28;20039;-89
2021/03/31 14:29:01;;;;;;;8.02;5.43;;;;;;;;;;5088911;28;20086;-89
2021/03/31 14:31:27;;;;;;;7.43;5.40;;;;;;;;;;5086768;28;20046;-87
2021/03/31 14:33:53;;;;;;;8.75;5.20;;;;;;;;;;5087406;28;20048;-85
2021/03/31 14:36:20;;;;;;;8.77;5.45;;;;;;;;;;5087845;28;20385;-85
2021/03/31 14:38:47;;;;;;;8.38;5.78;;;;;;;;;;5085683;28;20119;-85
2021/03/31 14:41:13;;;;;;;6.25;4.50;;;;;;;;;;5085481;28;20045;-88
2021/03/31 14:43:39;;;;;;;12.07;5.65;;;;;;;;;;5082374;28;20040;-88
2021/03/31 14:46:05;;;;;;;8.32;5.32;;;;;;;;;;5083611;28;20044;-85
2021/03/31 14:48:31;;;;;;;8.95;4.75;;;;;;;;;;5086000;28;20051;-86
2021/03/31 14:50:57;;;;;;;10.75;4.72;;;;;;;;;;5083399;28;20109;-87
2021/03/31 15:02:03;;;;;;;8.35;4.88;;;;;;;;;;5006387;28;20054;-88
2021/03/31 15:04:29;;;;;;;8.07;4.53;;;;;;;;;;5012664;28;20131;-88
2021/03/31 15:06:55;;;;;;;7.72;4.38;;;;;;;;;;5041260;28;20036;-87
2021/03/31 15:09:22;;;;;;;8.88;4.60;;;;;;;;;;5081497;28;20082;-86
2021/03/31 15:11:48;;;;;;;6.55;4.25;;;;;;;;;;5086744;28;20047;-86
2021/03/31 15:14:14;;;;;;;6.03;4.35;;;;;;;;;;5081032;28;20037;-87
2021/03/31 15:16:41;;;;;;;7.20;4.35;;;;;;;;;;5086240;28;20059;-86
2021/03/31 15:19:11;;;;;;;7.70;4.22;;;;;;;;;;5085756;28;20036;-87
2021/03/31 15:21:45;;;;;;;7.78;4.20;;;;;;;;;;5087253;28;20122;-87
2021/03/31 15:24:11;;;;;;;6.93;3.88;;;;;;;;;;5088379;28;20044;-87